sensor_id;sensor_type;location;lat;lon;timestamp;P1;durP1;ratioP1;P2;durP2;ratioP2
55728;SDS011;41633;39.720;2.910;2023-01-28T00:01:50;17.52;;;6.25;;
55728;SDS011;41633;39.720;2.910;2023-01-28T00:04:17;16.23;;;6.07;;
55728;SDS011;41633;39.720;2.910;2023-01-28T00:06:43;19.55;;;6.53;;
55728;SDS011;41633;39.720;2.910;2023-01-28T00:09:09;18.75;;;7.75;;
55728;SDS011;41633;39.720;2.910;2023-01-28T00:11:35;21.27;;;7.43;;
55728;SDS011;41633;39.720;2.910;2023-01-28T00:14:02;22.58;;;8.85;;
55728;SDS011;41633;39.720;2.910;2023-01-28T00:16:31;24.88;;;12.07;;
55728;SDS011;41633;39.720;2.910;2023-01-28T00:18:57;22.55;;;10.75;;
55728;SDS011;41633;39.720;2.910;2023-01-28T00:21:23;30.08;;;13.60;;
55728;SDS011;41633;39.720;2.910;2023-01-28T00:23:53;25.08;;;13.45;;
55728;SDS011;41633;39.720;2.910;2023-01-28T00:26:20;20.70;;;8.30;;
55728;SDS011;41633;39.720;2.910;2023-01-28T00:31:17;18.80;;;6.05;;
55728;SDS011;41633;39.720;2.910;2023-01-28T00:33:43;16.98;;;5.13;;
55728;SDS011;41633;39.720;2.910;2023-01-28T00:36:11;15.48;;;5.13;;
55728;SDS011;41633;39.720;2.910;2023-01-28T00:38:37;15.85;;;5.38;;
55728;SDS011;41633;39.720;2.910;2023-01-28T00:41:22;15.73;;;5.18;;
55728;SDS011;41633;39.720;2.910;2023-01-28T00:43:49;17.58;;;4.97;;
55728;SDS011;41633;39.720;2.910;2023-01-28T00:48:41;16.05;;;5.97;;
55728;SDS011;41633;39.720;2.910;2023-01-28T00:53:34;16.10;;;5.75;;
55728;SDS011;41633;39.720;2.910;2023-01-28T00:56:01;17.67;;;5.72;;
55728;SDS011;41633;39.720;2.910;2023-01-28T00:58:27;17.50;;;5.85;;
55728;SDS011;41633;39.720;2.910;2023-01-28T01:00:54;19.33;;;5.57;;
55728;SDS011;41633;39.720;2.910;2023-01-28T01:03:20;16.48;;;5.07;;
55728;SDS011;41633;39.720;2.910;2023-01-28T01:05:46;18.70;;;5.20;;
55728;SDS011;41633;39.720;2.910;2023-01-28T01:08:12;15.57;;;4.65;;
55728;SDS011;41633;39.720;2.910;2023-01-28T01:10:38;16.08;;;4.88;;
55728;SDS011;41633;39.720;2.910;2023-01-28T01:13:05;17.20;;;4.68;;
55728;SDS011;41633;39.720;2.910;2023-01-28T01:15:32;16.25;;;5.00;;
55728;SDS011;41633;39.720;2.910;2023-01-28T01:20:28;15.75;;;4.90;;
55728;SDS011;41633;39.720;2.910;2023-01-28T01:22:57;14.25;;;4.55;;
55728;SDS011;41633;39.720;2.910;2023-01-28T01:25:23;13.32;;;4.40;;
55728;SDS011;41633;39.720;2.910;2023-01-28T01:27:49;12.82;;;4.30;;
55728;SDS011;41633;39.720;2.910;2023-01-28T01:30:16;14.70;;;4.55;;
55728;SDS011;41633;39.720;2.910;2023-01-28T01:32:42;14.77;;;4.97;;
55728;SDS011;41633;39.720;2.910;2023-01-28T01:35:08;12.93;;;4.63;;
55728;SDS011;41633;39.720;2.910;2023-01-28T01:37:35;16.77;;;5.20;;
55728;SDS011;41633;39.720;2.910;2023-01-28T01:40:02;16.92;;;4.80;;
55728;SDS011;41633;39.720;2.910;2023-01-28T01:42:29;16.88;;;5.30;;
55728;SDS011;41633;39.720;2.910;2023-01-28T01:48:08;16.58;;;4.93;;
55728;SDS011;41633;39.720;2.910;2023-01-28T01:50:30;17.95;;;4.70;;
55728;SDS011;41633;39.720;2.910;2023-01-28T01:52:55;15.60;;;4.57;;
55728;SDS011;41633;39.720;2.910;2023-01-28T01:55:23;12.43;;;4.28;;
55728;SDS011;41633;39.720;2.910;2023-01-28T01:57:49;12.95;;;4.40;;
55728;SDS011;41633;39.720;2.910;2023-01-28T02:00:17;11.90;;;4.13;;
55728;SDS011;41633;39.720;2.910;2023-01-28T02:02:45;14.13;;;3.80;;
55728;SDS011;41633;39.720;2.910;2023-01-28T02:05:12;14.88;;;3.85;;
55728;SDS011;41633;39.720;2.910;2023-01-28T02:07:39;19.40;;;4.95;;
55728;SDS011;41633;39.720;2.910;2023-01-28T02:10:06;15.15;;;4.60;;
55728;SDS011;41633;39.720;2.910;2023-01-28T02:15:03;14.80;;;4.60;;
55728;SDS011;41633;39.720;2.910;2023-01-28T02:17:30;14.30;;;4.53;;
55728;SDS011;41633;39.720;2.910;2023-01-28T02:20:00;23.20;;;4.88;;
55728;SDS011;41633;39.720;2.910;2023-01-28T02:30:38;14.50;;;4.53;;
55728;SDS011;41633;39.720;2.910;2023-01-28T02:33:07;14.48;;;4.25;;
55728;SDS011;41633;39.720;2.910;2023-01-28T02:38:08;17.77;;;4.45;;
55728;SDS011;41633;39.720;2.910;2023-01-28T02:40:36;13.05;;;3.90;;
55728;SDS011;41633;39.720;2.910;2023-01-28T02:43:43;15.40;;;4.25;;
55728;SDS011;41633;39.720;2.910;2023-01-28T02:46:14;13.52;;;3.92;;
55728;SDS011;41633;39.720;2.910;2023-01-28T02:49:01;13.60;;;4.07;;
55728;SDS011;41633;39.720;2.910;2023-01-28T02:54:37;9.93;;;3.22;;
55728;SDS011;41633;39.720;2.910;2023-01-28T02:57:09;10.65;;;3.15;;
55728;SDS011;41633;39.720;2.910;2023-01-28T02:59:42;12.10;;;3.20;;
55728;SDS011;41633;39.720;2.910;2023-01-28T03:02:16;10.80;;;3.40;;
55728;SDS011;41633;39.720;2.910;2023-01-28T03:07:29;7.65;;;2.40;;
55728;SDS011;41633;39.720;2.910;2023-01-28T03:09:56;8.55;;;2.30;;
55728;SDS011;41633;39.720;2.910;2023-01-28T03:12:26;9.75;;;2.40;;
55728;SDS011;41633;39.720;2.910;2023-01-28T03:15:19;7.95;;;2.40;;
55728;SDS011;41633;39.720;2.910;2023-01-28T03:18:12;7.32;;;2.40;;
55728;SDS011;41633;39.720;2.910;2023-01-28T03:21:04;7.63;;;2.10;;
55728;SDS011;41633;39.720;2.910;2023-01-28T03:23:58;8.10;;;2.33;;
55728;SDS011;41633;39.720;2.910;2023-01-28T03:26:46;8.13;;;2.10;;
55728;SDS011;41633;39.720;2.910;2023-01-28T03:29:33;7.55;;;2.00;;
55728;SDS011;41633;39.720;2.910;2023-01-28T03:32:19;7.93;;;2.03;;
55728;SDS011;41633;39.720;2.910;2023-01-28T03:35:05;7.97;;;2.17;;
55728;SDS011;41633;39.720;2.910;2023-01-28T03:37:51;8.35;;;2.35;;
55728;SDS011;41633;39.720;2.910;2023-01-28T03:40:17;10.68;;;2.22;;
55728;SDS011;41633;39.720;2.910;2023-01-28T03:42:43;8.65;;;2.42;;
55728;SDS011;41633;39.720;2.910;2023-01-28T03:45:10;8.88;;;2.70;;
55728;SDS011;41633;39.720;2.910;2023-01-28T03:47:38;9.70;;;2.67;;
55728;SDS011;41633;39.720;2.910;2023-01-28T03:52:31;9.57;;;2.70;;
55728;SDS011;41633;39.720;2.910;2023-01-28T03:54:58;10.23;;;2.67;;
55728;SDS011;41633;39.720;2.910;2023-01-28T03:57:25;10.40;;;2.92;;
55728;SDS011;41633;39.720;2.910;2023-01-28T03:59:52;10.45;;;3.15;;
55728;SDS011;41633;39.720;2.910;2023-01-28T04:04:44;9.45;;;2.55;;
55728;SDS011;41633;39.720;2.910;2023-01-28T04:07:11;11.02;;;2.75;;
55728;SDS011;41633;39.720;2.910;2023-01-28T04:09:39;8.60;;;2.53;;
55728;SDS011;41633;39.720;2.910;2023-01-28T04:14:32;8.40;;;2.20;;
55728;SDS011;41633;39.720;2.910;2023-01-28T04:19:24;10.32;;;2.75;;
55728;SDS011;41633;39.720;2.910;2023-01-28T04:21:51;9.57;;;2.58;;
55728;SDS011;41633;39.720;2.910;2023-01-28T04:24:21;9.85;;;2.53;;
55728;SDS011;41633;39.720;2.910;2023-01-28T04:26:47;8.20;;;2.40;;
55728;SDS011;41633;39.720;2.910;2023-01-28T04:31:40;9.15;;;2.42;;
55728;SDS011;41633;39.720;2.910;2023-01-28T04:34:06;10.85;;;2.70;;
55728;SDS011;41633;39.720;2.910;2023-01-28T04:36:33;9.23;;;2.80;;
55728;SDS011;41633;39.720;2.910;2023-01-28T04:38:59;9.57;;;2.78;;
55728;SDS011;41633;39.720;2.910;2023-01-28T04:41:25;10.35;;;2.85;;
55728;SDS011;41633;39.720;2.910;2023-01-28T04:43:51;11.40;;;2.72;;
55728;SDS011;41633;39.720;2.910;2023-01-28T04:46:18;9.80;;;2.60;;
55728;SDS011;41633;39.720;2.910;2023-01-28T04:48:44;10.90;;;2.90;;
55728;SDS011;41633;39.720;2.910;2023-01-28T04:51:10;9.93;;;3.15;;
55728;SDS011;41633;39.720;2.910;2023-01-28T04:53:36;8.80;;;2.58;;
55728;SDS011;41633;39.720;2.910;2023-01-28T04:56:02;9.75;;;2.80;;
55728;SDS011;41633;39.720;2.910;2023-01-28T04:58:29;9.60;;;2.78;;
55728;SDS011;41633;39.720;2.910;2023-01-28T05:00:55;10.50;;;2.75;;
55728;SDS011;41633;39.720;2.910;2023-01-28T05:03:22;10.45;;;2.72;;
55728;SDS011;41633;39.720;2.910;2023-01-28T05:05:48;10.93;;;3.05;;
55728;SDS011;41633;39.720;2.910;2023-01-28T05:08:14;8.40;;;2.40;;
55728;SDS011;41633;39.720;2.910;2023-01-28T05:10:40;9.38;;;2.65;;
55728;SDS011;41633;39.720;2.910;2023-01-28T05:13:06;9.15;;;2.85;;
55728;SDS011;41633;39.720;2.910;2023-01-28T05:15:33;10.57;;;3.15;;
55728;SDS011;41633;39.720;2.910;2023-01-28T05:17:59;11.25;;;3.45;;
55728;SDS011;41633;39.720;2.910;2023-01-28T05:20:25;10.75;;;3.63;;
55728;SDS011;41633;39.720;2.910;2023-01-28T05:22:52;9.93;;;3.80;;
55728;SDS011;41633;39.720;2.910;2023-01-28T05:25:18;9.75;;;3.45;;
55728;SDS011;41633;39.720;2.910;2023-01-28T05:27:48;9.10;;;3.25;;
55728;SDS011;41633;39.720;2.910;2023-01-28T05:30:15;9.10;;;3.15;;
55728;SDS011;41633;39.720;2.910;2023-01-28T05:35:07;9.77;;;2.38;;
55728;SDS011;41633;39.720;2.910;2023-01-28T05:37:34;10.15;;;2.33;;
55728;SDS011;41633;39.720;2.910;2023-01-28T05:40:00;9.30;;;2.50;;
55728;SDS011;41633;39.720;2.910;2023-01-28T05:42:26;8.57;;;2.35;;
55728;SDS011;41633;39.720;2.910;2023-01-28T05:44:52;9.82;;;2.50;;
55728;SDS011;41633;39.720;2.910;2023-01-28T05:47:19;11.77;;;3.33;;
55728;SDS011;41633;39.720;2.910;2023-01-28T05:49:45;11.45;;;2.88;;
55728;SDS011;41633;39.720;2.910;2023-01-28T05:52:11;12.10;;;3.20;;
55728;SDS011;41633;39.720;2.910;2023-01-28T05:54:37;11.85;;;3.20;;
55728;SDS011;41633;39.720;2.910;2023-01-28T05:57:03;9.95;;;3.10;;
55728;SDS011;41633;39.720;2.910;2023-01-28T05:59:30;12.88;;;2.92;;
55728;SDS011;41633;39.720;2.910;2023-01-28T06:01:56;12.40;;;3.30;;
55728;SDS011;41633;39.720;2.910;2023-01-28T06:04:22;12.73;;;3.28;;
55728;SDS011;41633;39.720;2.910;2023-01-28T06:06:48;12.70;;;3.08;;
55728;SDS011;41633;39.720;2.910;2023-01-28T06:09:14;9.98;;;3.28;;
55728;SDS011;41633;39.720;2.910;2023-01-28T06:11:40;10.52;;;3.05;;
55728;SDS011;41633;39.720;2.910;2023-01-28T06:14:08;11.88;;;2.92;;
55728;SDS011;41633;39.720;2.910;2023-01-28T06:16:34;12.02;;;2.83;;
55728;SDS011;41633;39.720;2.910;2023-01-28T06:19:00;12.27;;;3.20;;
55728;SDS011;41633;39.720;2.910;2023-01-28T06:21:26;10.10;;;2.88;;
55728;SDS011;41633;39.720;2.910;2023-01-28T06:23:53;11.30;;;2.90;;
55728;SDS011;41633;39.720;2.910;2023-01-28T06:26:19;11.63;;;2.90;;
55728;SDS011;41633;39.720;2.910;2023-01-28T06:28:45;11.38;;;2.92;;
55728;SDS011;41633;39.720;2.910;2023-01-28T06:31:11;13.30;;;3.08;;
55728;SDS011;41633;39.720;2.910;2023-01-28T06:33:37;9.88;;;2.42;;
55728;SDS011;41633;39.720;2.910;2023-01-28T06:36:04;8.52;;;2.08;;
55728;SDS011;41633;39.720;2.910;2023-01-28T06:38:31;7.75;;;2.03;;
55728;SDS011;41633;39.720;2.910;2023-01-28T06:40:57;8.80;;;2.00;;
55728;SDS011;41633;39.720;2.910;2023-01-28T06:43:23;8.88;;;2.10;;
55728;SDS011;41633;39.720;2.910;2023-01-28T06:45:52;6.55;;;1.63;;
55728;SDS011;41633;39.720;2.910;2023-01-28T06:48:19;6.72;;;1.60;;
55728;SDS011;41633;39.720;2.910;2023-01-28T06:50:45;6.50;;;1.70;;
55728;SDS011;41633;39.720;2.910;2023-01-28T06:53:12;6.32;;;1.60;;
55728;SDS011;41633;39.720;2.910;2023-01-28T06:55:38;6.57;;;1.70;;
55728;SDS011;41633;39.720;2.910;2023-01-28T06:58:04;6.30;;;1.58;;
55728;SDS011;41633;39.720;2.910;2023-01-28T07:00:30;6.47;;;1.63;;
55728;SDS011;41633;39.720;2.910;2023-01-28T07:02:56;8.75;;;2.00;;
55728;SDS011;41633;39.720;2.910;2023-01-28T07:05:23;8.75;;;1.88;;
55728;SDS011;41633;39.720;2.910;2023-01-28T07:07:49;6.43;;;1.70;;
55728;SDS011;41633;39.720;2.910;2023-01-28T07:10:15;8.18;;;2.00;;
55728;SDS011;41633;39.720;2.910;2023-01-28T07:12:42;7.47;;;2.00;;
55728;SDS011;41633;39.720;2.910;2023-01-28T07:15:08;9.15;;;1.60;;
55728;SDS011;41633;39.720;2.910;2023-01-28T07:17:41;5.15;;;1.52;;
55728;SDS011;41633;39.720;2.910;2023-01-28T07:20:08;6.78;;;1.63;;
55728;SDS011;41633;39.720;2.910;2023-01-28T07:22:36;6.50;;;1.60;;
55728;SDS011;41633;39.720;2.910;2023-01-28T07:25:03;5.05;;;1.48;;
55728;SDS011;41633;39.720;2.910;2023-01-28T07:29:56;6.93;;;2.00;;
55728;SDS011;41633;39.720;2.910;2023-01-28T07:32:22;6.07;;;2.00;;
55728;SDS011;41633;39.720;2.910;2023-01-28T07:34:50;6.57;;;2.00;;
55728;SDS011;41633;39.720;2.910;2023-01-28T07:37:17;6.40;;;1.90;;
55728;SDS011;41633;39.720;2.910;2023-01-28T07:39:43;7.18;;;1.90;;
55728;SDS011;41633;39.720;2.910;2023-01-28T07:42:09;5.97;;;1.73;;
55728;SDS011;41633;39.720;2.910;2023-01-28T07:44:35;7.07;;;1.73;;
55728;SDS011;41633;39.720;2.910;2023-01-28T07:47:02;4.65;;;1.30;;
55728;SDS011;41633;39.720;2.910;2023-01-28T07:51:58;5.78;;;1.90;;
55728;SDS011;41633;39.720;2.910;2023-01-28T07:54:24;6.10;;;1.83;;
55728;SDS011;41633;39.720;2.910;2023-01-28T07:56:50;3.58;;;1.30;;
55728;SDS011;41633;39.720;2.910;2023-01-28T07:59:17;7.00;;;1.90;;
55728;SDS011;41633;39.720;2.910;2023-01-28T08:01:43;5.65;;;2.00;;
55728;SDS011;41633;39.720;2.910;2023-01-28T08:04:09;6.40;;;2.47;;
55728;SDS011;41633;39.720;2.910;2023-01-28T08:06:35;6.57;;;2.30;;
55728;SDS011;41633;39.720;2.910;2023-01-28T08:09:05;9.48;;;3.35;;
55728;SDS011;41633;39.720;2.910;2023-01-28T08:11:32;9.13;;;3.35;;
55728;SDS011;41633;39.720;2.910;2023-01-28T08:13:59;11.63;;;5.68;;
55728;SDS011;41633;39.720;2.910;2023-01-28T08:16:26;9.35;;;4.13;;
55728;SDS011;41633;39.720;2.910;2023-01-28T08:18:53;9.05;;;3.97;;
55728;SDS011;41633;39.720;2.910;2023-01-28T08:21:19;10.18;;;4.38;;
55728;SDS011;41633;39.720;2.910;2023-01-28T08:23:45;11.38;;;4.82;;
55728;SDS011;41633;39.720;2.910;2023-01-28T08:26:11;10.80;;;5.13;;
55728;SDS011;41633;39.720;2.910;2023-01-28T08:28:38;9.15;;;4.45;;
55728;SDS011;41633;39.720;2.910;2023-01-28T08:31:04;13.52;;;8.25;;
55728;SDS011;41633;39.720;2.910;2023-01-28T08:33:30;12.43;;;7.43;;
55728;SDS011;41633;39.720;2.910;2023-01-28T08:35:56;10.65;;;5.82;;
55728;SDS011;41633;39.720;2.910;2023-01-28T08:38:22;12.10;;;5.85;;
55728;SDS011;41633;39.720;2.910;2023-01-28T08:40:49;10.13;;;4.07;;
55728;SDS011;41633;39.720;2.910;2023-01-28T08:43:18;9.10;;;3.28;;
55728;SDS011;41633;39.720;2.910;2023-01-28T08:45:44;10.45;;;3.47;;
55728;SDS011;41633;39.720;2.910;2023-01-28T08:48:11;11.13;;;4.05;;
55728;SDS011;41633;39.720;2.910;2023-01-28T08:50:39;10.38;;;4.25;;
55728;SDS011;41633;39.720;2.910;2023-01-28T08:53:07;20.98;;;11.55;;
55728;SDS011;41633;39.720;2.910;2023-01-28T08:55:34;18.88;;;10.10;;
55728;SDS011;41633;39.720;2.910;2023-01-28T08:58:02;17.52;;;7.63;;
55728;SDS011;41633;39.720;2.910;2023-01-28T09:00:28;20.85;;;10.27;;
55728;SDS011;41633;39.720;2.910;2023-01-28T09:02:54;20.13;;;11.98;;
55728;SDS011;41633;39.720;2.910;2023-01-28T09:05:20;17.42;;;10.40;;
55728;SDS011;41633;39.720;2.910;2023-01-28T09:10:13;16.85;;;6.32;;
55728;SDS011;41633;39.720;2.910;2023-01-28T09:12:40;13.25;;;5.13;;
55728;SDS011;41633;39.720;2.910;2023-01-28T09:15:21;12.43;;;5.80;;
55728;SDS011;41633;39.720;2.910;2023-01-28T09:17:48;16.50;;;7.32;;
55728;SDS011;41633;39.720;2.910;2023-01-28T09:20:14;15.48;;;8.65;;
55728;SDS011;41633;39.720;2.910;2023-01-28T09:22:40;17.00;;;8.98;;
55728;SDS011;41633;39.720;2.910;2023-01-28T09:25:07;14.80;;;8.00;;
55728;SDS011;41633;39.720;2.910;2023-01-28T09:27:33;13.38;;;6.50;;
55728;SDS011;41633;39.720;2.910;2023-01-28T09:29:59;11.98;;;4.88;;
55728;SDS011;41633;39.720;2.910;2023-01-28T09:32:25;14.43;;;5.95;;
55728;SDS011;41633;39.720;2.910;2023-01-28T09:34:51;11.88;;;5.22;;
55728;SDS011;41633;39.720;2.910;2023-01-28T09:37:18;16.10;;;8.20;;
55728;SDS011;41633;39.720;2.910;2023-01-28T09:39:44;14.18;;;6.43;;
55728;SDS011;41633;39.720;2.910;2023-01-28T09:47:24;13.32;;;6.70;;
55728;SDS011;41633;39.720;2.910;2023-01-28T09:49:52;13.07;;;5.85;;
55728;SDS011;41633;39.720;2.910;2023-01-28T09:52:21;13.93;;;4.93;;
55728;SDS011;41633;39.720;2.910;2023-01-28T09:54:49;12.57;;;5.05;;
55728;SDS011;41633;39.720;2.910;2023-01-28T09:57:19;14.10;;;5.68;;
55728;SDS011;41633;39.720;2.910;2023-01-28T09:59:46;13.05;;;5.82;;
55728;SDS011;41633;39.720;2.910;2023-01-28T10:05:11;19.38;;;8.32;;
55728;SDS011;41633;39.720;2.910;2023-01-28T10:08:00;18.92;;;8.02;;
55728;SDS011;41633;39.720;2.910;2023-01-28T10:10:34;16.00;;;5.88;;
55728;SDS011;41633;39.720;2.910;2023-01-28T10:18:15;18.58;;;7.30;;
55728;SDS011;41633;39.720;2.910;2023-01-28T10:21:01;17.45;;;6.20;;
55728;SDS011;41633;39.720;2.910;2023-01-28T10:23:31;11.75;;;5.03;;
55728;SDS011;41633;39.720;2.910;2023-01-28T10:26:02;15.93;;;5.03;;
55728;SDS011;41633;39.720;2.910;2023-01-28T10:28:29;14.98;;;4.85;;
55728;SDS011;41633;39.720;2.910;2023-01-28T10:30:56;16.25;;;5.60;;
55728;SDS011;41633;39.720;2.910;2023-01-28T10:33:36;17.98;;;5.80;;
55728;SDS011;41633;39.720;2.910;2023-01-28T10:36:04;17.35;;;5.75;;
55728;SDS011;41633;39.720;2.910;2023-01-28T10:38:31;18.05;;;6.22;;
55728;SDS011;41633;39.720;2.910;2023-01-28T10:41:00;14.98;;;4.75;;
55728;SDS011;41633;39.720;2.910;2023-01-28T10:43:29;12.65;;;4.63;;
55728;SDS011;41633;39.720;2.910;2023-01-28T10:48:23;15.52;;;5.18;;
55728;SDS011;41633;39.720;2.910;2023-01-28T10:50:50;16.25;;;5.32;;
55728;SDS011;41633;39.720;2.910;2023-01-28T10:53:17;14.27;;;5.18;;
55728;SDS011;41633;39.720;2.910;2023-01-28T10:55:51;15.27;;;4.88;;
55728;SDS011;41633;39.720;2.910;2023-01-28T10:58:19;13.30;;;4.63;;
55728;SDS011;41633;39.720;2.910;2023-01-28T11:00:50;16.73;;;4.82;;
55728;SDS011;41633;39.720;2.910;2023-01-28T11:03:17;15.15;;;4.60;;
55728;SDS011;41633;39.720;2.910;2023-01-28T11:08:14;11.48;;;4.22;;
55728;SDS011;41633;39.720;2.910;2023-01-28T11:10:41;14.90;;;5.00;;
55728;SDS011;41633;39.720;2.910;2023-01-28T11:15:33;15.43;;;6.80;;
55728;SDS011;41633;39.720;2.910;2023-01-28T11:18:03;13.77;;;6.97;;
55728;SDS011;41633;39.720;2.910;2023-01-28T11:20:40;17.20;;;7.78;;
55728;SDS011;41633;39.720;2.910;2023-01-28T11:23:20;12.50;;;5.35;;
55728;SDS011;41633;39.720;2.910;2023-01-28T11:25:47;12.55;;;4.90;;
55728;SDS011;41633;39.720;2.910;2023-01-28T11:28:17;15.10;;;6.38;;
55728;SDS011;41633;39.720;2.910;2023-01-28T11:30:48;13.05;;;5.40;;
55728;SDS011;41633;39.720;2.910;2023-01-28T11:33:49;10.80;;;4.40;;
55728;SDS011;41633;39.720;2.910;2023-01-28T11:36:15;10.40;;;4.10;;
55728;SDS011;41633;39.720;2.910;2023-01-28T11:38:58;12.25;;;4.50;;
55728;SDS011;41633;39.720;2.910;2023-01-28T11:41:28;12.10;;;4.72;;
55728;SDS011;41633;39.720;2.910;2023-01-28T11:43:55;11.82;;;4.53;;
55728;SDS011;41633;39.720;2.910;2023-01-28T11:46:32;9.23;;;3.65;;
55728;SDS011;41633;39.720;2.910;2023-01-28T11:57:29;10.60;;;4.72;;
55728;SDS011;41633;39.720;2.910;2023-01-28T12:00:02;12.18;;;5.10;;
55728;SDS011;41633;39.720;2.910;2023-01-28T12:02:38;11.45;;;4.55;;
55728;SDS011;41633;39.720;2.910;2023-01-28T12:07:46;11.20;;;4.20;;
55728;SDS011;41633;39.720;2.910;2023-01-28T12:12:48;11.70;;;3.95;;
55728;SDS011;41633;39.720;2.910;2023-01-28T12:20:15;13.25;;;5.90;;
55728;SDS011;41633;39.720;2.910;2023-01-28T12:22:48;12.32;;;4.65;;
55728;SDS011;41633;39.720;2.910;2023-01-28T12:25:31;12.75;;;4.40;;
55728;SDS011;41633;39.720;2.910;2023-01-28T12:38:34;11.75;;;3.75;;
55728;SDS011;41633;39.720;2.910;2023-01-28T12:41:03;11.82;;;4.32;;
55728;SDS011;41633;39.720;2.910;2023-01-28T12:46:02;11.63;;;4.03;;
55728;SDS011;41633;39.720;2.910;2023-01-28T12:48:39;13.20;;;4.20;;
55728;SDS011;41633;39.720;2.910;2023-01-28T12:53:37;16.10;;;8.85;;
55728;SDS011;41633;39.720;2.910;2023-01-28T12:56:08;13.10;;;5.82;;
55728;SDS011;41633;39.720;2.910;2023-01-28T13:01:15;13.00;;;4.25;;
55728;SDS011;41633;39.720;2.910;2023-01-28T13:06:14;11.65;;;4.03;;
55728;SDS011;41633;39.720;2.910;2023-01-28T13:08:42;10.90;;;4.97;;
55728;SDS011;41633;39.720;2.910;2023-01-28T13:11:13;11.93;;;5.30;;
55728;SDS011;41633;39.720;2.910;2023-01-28T13:13:40;12.98;;;5.18;;
55728;SDS011;41633;39.720;2.910;2023-01-28T13:16:08;12.90;;;5.38;;
55728;SDS011;41633;39.720;2.910;2023-01-28T13:23:50;12.32;;;4.65;;
55728;SDS011;41633;39.720;2.910;2023-01-28T13:28:46;14.63;;;6.13;;
55728;SDS011;41633;39.720;2.910;2023-01-28T13:31:13;13.55;;;6.10;;
55728;SDS011;41633;39.720;2.910;2023-01-28T13:34:02;13.43;;;5.65;;
55728;SDS011;41633;39.720;2.910;2023-01-28T13:36:42;13.82;;;6.65;;
55728;SDS011;41633;39.720;2.910;2023-01-28T13:41:43;12.32;;;5.13;;
55728;SDS011;41633;39.720;2.910;2023-01-28T13:46:58;12.88;;;5.38;;
55728;SDS011;41633;39.720;2.910;2023-01-28T13:49:27;11.20;;;5.30;;
55728;SDS011;41633;39.720;2.910;2023-01-28T13:52:03;12.55;;;5.97;;
55728;SDS011;41633;39.720;2.910;2023-01-28T13:54:32;15.90;;;9.18;;
55728;SDS011;41633;39.720;2.910;2023-01-28T13:59:34;14.82;;;8.02;;
55728;SDS011;41633;39.720;2.910;2023-01-28T14:10:22;13.73;;;6.32;;
55728;SDS011;41633;39.720;2.910;2023-01-28T14:21:02;15.40;;;8.52;;
55728;SDS011;41633;39.720;2.910;2023-01-28T14:23:29;17.48;;;10.10;;
55728;SDS011;41633;39.720;2.910;2023-01-28T14:26:12;18.77;;;12.05;;
55728;SDS011;41633;39.720;2.910;2023-01-28T14:33:46;18.98;;;10.70;;
55728;SDS011;41633;39.720;2.910;2023-01-28T14:36:12;21.77;;;14.07;;
55728;SDS011;41633;39.720;2.910;2023-01-28T14:38:40;22.88;;;12.82;;
55728;SDS011;41633;39.720;2.910;2023-01-28T14:41:07;39.78;;;27.23;;
55728;SDS011;41633;39.720;2.910;2023-01-28T14:43:34;35.30;;;22.77;;
55728;SDS011;41633;39.720;2.910;2023-01-28T14:46:06;23.80;;;14.10;;
55728;SDS011;41633;39.720;2.910;2023-01-28T14:48:44;28.15;;;18.08;;
55728;SDS011;41633;39.720;2.910;2023-01-28T14:54:09;22.77;;;12.05;;
55728;SDS011;41633;39.720;2.910;2023-01-28T14:59:21;64.40;;;44.33;;
55728;SDS011;41633;39.720;2.910;2023-01-28T15:01:48;84.93;;;65.88;;
55728;SDS011;41633;39.720;2.910;2023-01-28T15:04:30;35.20;;;25.02;;
55728;SDS011;41633;39.720;2.910;2023-01-28T15:06:57;48.03;;;37.83;;
55728;SDS011;41633;39.720;2.910;2023-01-28T15:09:26;30.67;;;22.75;;
55728;SDS011;41633;39.720;2.910;2023-01-28T15:11:53;27.02;;;16.80;;
55728;SDS011;41633;39.720;2.910;2023-01-28T15:14:28;21.85;;;12.05;;
55728;SDS011;41633;39.720;2.910;2023-01-28T15:16:55;25.40;;;14.35;;
55728;SDS011;41633;39.720;2.910;2023-01-28T15:19:42;22.80;;;12.80;;
55728;SDS011;41633;39.720;2.910;2023-01-28T15:22:08;20.75;;;11.95;;
55728;SDS011;41633;39.720;2.910;2023-01-28T15:24:39;24.48;;;14.63;;
55728;SDS011;41633;39.720;2.910;2023-01-28T15:27:12;18.73;;;11.73;;
55728;SDS011;41633;39.720;2.910;2023-01-28T15:29:39;20.55;;;10.15;;
55728;SDS011;41633;39.720;2.910;2023-01-28T15:32:21;20.80;;;10.40;;
55728;SDS011;41633;39.720;2.910;2023-01-28T15:34:48;25.83;;;14.00;;
55728;SDS011;41633;39.720;2.910;2023-01-28T15:37:14;30.55;;;20.42;;
55728;SDS011;41633;39.720;2.910;2023-01-28T15:39:41;24.05;;;15.38;;
55728;SDS011;41633;39.720;2.910;2023-01-28T15:42:07;22.05;;;12.98;;
55728;SDS011;41633;39.720;2.910;2023-01-28T15:44:43;22.58;;;12.35;;
55728;SDS011;41633;39.720;2.910;2023-01-28T15:47:20;20.70;;;11.82;;
55728;SDS011;41633;39.720;2.910;2023-01-28T15:49:49;21.98;;;11.38;;
55728;SDS011;41633;39.720;2.910;2023-01-28T15:52:16;23.02;;;13.32;;
55728;SDS011;41633;39.720;2.910;2023-01-28T15:54:43;24.48;;;12.63;;
55728;SDS011;41633;39.720;2.910;2023-01-28T15:59:45;23.95;;;15.20;;
55728;SDS011;41633;39.720;2.910;2023-01-28T16:02:22;23.25;;;13.82;;
55728;SDS011;41633;39.720;2.910;2023-01-28T16:04:58;27.20;;;15.82;;
55728;SDS011;41633;39.720;2.910;2023-01-28T16:07:26;29.02;;;16.23;;
55728;SDS011;41633;39.720;2.910;2023-01-28T16:09:53;31.55;;;19.55;;
55728;SDS011;41633;39.720;2.910;2023-01-28T16:12:19;33.92;;;21.63;;
55728;SDS011;41633;39.720;2.910;2023-01-28T16:14:50;32.83;;;21.08;;
55728;SDS011;41633;39.720;2.910;2023-01-28T16:17:20;27.83;;;19.33;;
55728;SDS011;41633;39.720;2.910;2023-01-28T16:19:48;31.90;;;17.55;;
55728;SDS011;41633;39.720;2.910;2023-01-28T16:22:19;39.08;;;24.92;;
55728;SDS011;41633;39.720;2.910;2023-01-28T16:24:49;28.52;;;18.30;;
55728;SDS011;41633;39.720;2.910;2023-01-28T16:27:26;27.10;;;15.88;;
55728;SDS011;41633;39.720;2.910;2023-01-28T16:29:52;23.90;;;13.55;;
55728;SDS011;41633;39.720;2.910;2023-01-28T16:32:37;27.83;;;15.13;;
55728;SDS011;41633;39.720;2.910;2023-01-28T16:35:13;27.08;;;13.77;;
55728;SDS011;41633;39.720;2.910;2023-01-28T17:06:31;24.35;;;10.20;;
55728;SDS011;41633;39.720;2.910;2023-01-28T17:12:02;18.35;;;8.77;;
55728;SDS011;41633;39.720;2.910;2023-01-28T17:14:28;24.67;;;11.98;;
55728;SDS011;41633;39.720;2.910;2023-01-28T17:16:55;20.60;;;10.38;;
55728;SDS011;41633;39.720;2.910;2023-01-28T17:19:21;24.42;;;13.10;;
55728;SDS011;41633;39.720;2.910;2023-01-28T17:21:47;25.52;;;12.32;;
55728;SDS011;41633;39.720;2.910;2023-01-28T17:24:13;26.13;;;15.00;;
55728;SDS011;41633;39.720;2.910;2023-01-28T17:26:39;25.33;;;14.75;;
55728;SDS011;41633;39.720;2.910;2023-01-28T17:29:06;22.00;;;13.13;;
55728;SDS011;41633;39.720;2.910;2023-01-28T17:31:32;20.85;;;12.93;;
55728;SDS011;41633;39.720;2.910;2023-01-28T17:33:59;27.27;;;16.17;;
55728;SDS011;41633;39.720;2.910;2023-01-28T17:36:28;28.45;;;15.35;;
55728;SDS011;41633;39.720;2.910;2023-01-28T17:38:54;28.05;;;16.92;;
55728;SDS011;41633;39.720;2.910;2023-01-28T17:41:20;28.40;;;16.20;;
55728;SDS011;41633;39.720;2.910;2023-01-28T17:43:50;25.83;;;13.68;;
55728;SDS011;41633;39.720;2.910;2023-01-28T17:46:16;23.30;;;14.32;;
55728;SDS011;41633;39.720;2.910;2023-01-28T17:51:10;24.13;;;13.13;;
55728;SDS011;41633;39.720;2.910;2023-01-28T17:53:36;26.25;;;10.55;;
55728;SDS011;41633;39.720;2.910;2023-01-28T17:56:03;20.67;;;9.40;;
55728;SDS011;41633;39.720;2.910;2023-01-28T17:58:29;18.80;;;8.77;;
55728;SDS011;41633;39.720;2.910;2023-01-28T18:00:55;20.40;;;9.00;;